createdAt,value
2024-04-14T00:00:16.347Z,12.07
2024-04-14T00:01:16.393Z,12.18
2024-04-14T00:02:16.349Z,12.18
2024-04-14T00:03:16.535Z,12.13
2024-04-14T00:04:16.560Z,12.13
2024-04-14T00:05:16.390Z,12.12
2024-04-14T00:06:16.308Z,12.12
2024-04-14T00:07:16.304Z,12.06
2024-04-14T00:08:16.313Z,12.04
2024-04-14T00:09:16.331Z,11.99
2024-04-14T00:10:16.302Z,11.91
2024-04-14T00:11:16.316Z,11.86
2024-04-14T00:12:16.253Z,11.87
2024-04-14T00:13:16.225Z,12.00
2024-04-14T00:14:16.239Z,12.03
2024-04-14T00:15:16.293Z,11.95
2024-04-14T00:16:16.236Z,11.90
2024-04-14T00:17:16.219Z,11.95
2024-04-14T00:18:16.291Z,12.07
2024-04-14T00:19:16.314Z,12.10
2024-04-14T00:20:16.287Z,12.21
2024-04-14T00:21:16.173Z,12.18
2024-04-14T00:22:16.160Z,12.15
2024-04-14T00:23:16.164Z,12.12
2024-04-14T00:24:16.134Z,12.06
2024-04-14T00:25:16.133Z,12.28
2024-04-14T00:26:16.223Z,12.36
2024-04-14T00:27:16.126Z,12.29
2024-04-14T00:28:16.107Z,12.28
2024-04-14T00:29:16.114Z,12.21
2024-04-14T00:30:16.080Z,12.24
2024-04-14T00:31:16.098Z,12.27
2024-04-14T00:32:16.150Z,12.29
2024-04-14T00:33:16.265Z,12.39
2024-04-14T00:34:16.073Z,12.27
2024-04-14T00:35:16.041Z,12.40
2024-04-14T00:36:16.038Z,12.43
2024-04-14T00:37:16.094Z,12.40
2024-04-14T00:38:16.037Z,12.42
2024-04-14T00:39:16.069Z,12.40
2024-04-14T00:40:16.020Z,12.39
2024-04-14T00:41:16.016Z,12.35
2024-04-14T00:42:16.006Z,12.31
2024-04-14T00:43:16.018Z,12.35
2024-04-14T00:44:15.949Z,12.35
2024-04-14T00:45:15.948Z,12.32
2024-04-14T00:46:15.990Z,12.28
2024-04-14T00:47:15.940Z,12.25
2024-04-14T00:48:16.030Z,12.22
2024-04-14T00:49:16.081Z,12.21
2024-04-14T00:50:15.939Z,12.15
2024-04-14T00:51:15.921Z,12.13
2024-04-14T00:52:15.891Z,12.07
2024-04-14T00:53:15.914Z,12.04
2024-04-14T00:54:15.933Z,12.03
2024-04-14T00:55:15.862Z,12.00
2024-04-14T00:56:15.862Z,11.95
2024-04-14T00:57:15.851Z,11.94
2024-04-14T00:58:15.816Z,11.94
2024-04-14T00:59:15.895Z,11.91
2024-04-14T01:00:15.873Z,11.87
2024-04-14T01:01:15.935Z,11.86
2024-04-14T01:02:15.791Z,11.86
2024-04-14T01:03:15.871Z,11.83
2024-04-14T01:04:15.834Z,11.81
2024-04-14T01:05:15.799Z,11.81
2024-04-14T01:06:15.842Z,11.78
2024-04-14T01:07:15.758Z,11.77
2024-04-14T01:08:15.741Z,11.80
2024-04-14T01:09:15.724Z,11.77
2024-04-14T01:10:15.755Z,11.70
2024-04-14T01:11:15.743Z,11.80
2024-04-14T01:12:15.793Z,11.78
2024-04-14T01:13:15.733Z,11.77
2024-04-14T01:14:15.689Z,11.72
2024-04-14T01:15:15.662Z,11.75
2024-04-14T01:16:15.679Z,11.69
2024-04-14T01:17:15.742Z,11.70
2024-04-14T01:18:15.713Z,11.68
2024-04-14T01:19:15.663Z,11.70
2024-04-14T01:20:15.641Z,11.68
2024-04-14T01:21:15.639Z,11.69
2024-04-14T01:22:15.651Z,11.69
2024-04-14T01:23:15.642Z,11.72
2024-04-14T01:24:15.612Z,11.88
2024-04-14T01:25:15.587Z,12.00
2024-04-14T01:26:15.581Z,12.27
2024-04-14T01:27:16.301Z,12.20
2024-04-14T01:28:15.526Z,12.29
2024-04-14T01:29:15.658Z,12.58
2024-04-14T01:30:15.574Z,12.85
2024-04-14T01:31:15.559Z,13.05
2024-04-14T01:32:15.591Z,13.33
2024-04-14T01:33:15.519Z,13.49
2024-04-14T01:34:15.556Z,13.71
2024-04-14T01:35:15.557Z,13.87
2024-04-14T01:36:15.517Z,13.89
2024-04-14T01:37:15.492Z,14.04
2024-04-14T01:38:22.040Z,14.30
2024-04-14T01:39:15.579Z,14.43
2024-04-14T01:40:15.487Z,14.58
2024-04-14T01:41:15.513Z,14.88
2024-04-14T01:42:15.463Z,14.99
2024-04-14T01:43:15.464Z,14.97
2024-04-14T01:44:15.432Z,14.97
2024-04-14T01:45:15.466Z,15.09
2024-04-14T01:46:15.442Z,15.09
2024-04-14T01:47:15.446Z,15.06
2024-04-14T01:48:15.445Z,15.04
2024-04-14T01:49:15.504Z,15.02
2024-04-14T01:50:15.425Z,15.03
2024-04-14T01:51:15.424Z,15.39
2024-04-14T01:52:15.330Z,15.43
2024-04-14T01:53:15.412Z,15.49
2024-04-14T01:54:15.306Z,15.52
2024-04-14T01:55:15.314Z,15.52
2024-04-14T01:56:15.288Z,15.65
2024-04-14T01:57:15.317Z,15.61
2024-04-14T01:58:15.276Z,15.57
2024-04-14T01:59:15.435Z,15.52
2024-04-14T02:00:15.242Z,15.51
2024-04-14T02:01:15.331Z,15.54
2024-04-14T02:02:15.272Z,15.58
2024-04-14T02:03:15.327Z,15.61
2024-04-14T02:04:15.326Z,15.64
2024-04-14T02:05:15.347Z,15.70
2024-04-14T02:06:15.245Z,15.76
2024-04-14T02:07:15.186Z,15.92
2024-04-14T02:08:15.191Z,16.02
2024-04-14T02:09:15.158Z,16.02
2024-04-14T02:10:15.156Z,16.00
2024-04-14T02:11:15.263Z,16.00
2024-04-14T02:12:15.162Z,16.00
2024-04-14T02:13:15.176Z,15.91
2024-04-14T02:14:15.123Z,15.86
2024-04-14T02:15:15.165Z,15.83
2024-04-14T02:16:15.133Z,15.77
2024-04-14T02:17:15.173Z,15.77
2024-04-14T02:18:15.140Z,15.80
2024-04-14T02:19:15.134Z,16.01
2024-04-14T02:20:15.134Z,16.01
2024-04-14T02:21:15.070Z,15.97
2024-04-14T02:22:15.094Z,15.95
2024-04-14T02:23:15.143Z,15.91
2024-04-14T02:24:15.074Z,15.88
2024-04-14T02:25:15.046Z,15.91
2024-04-14T02:26:15.013Z,15.92
2024-04-14T02:27:15.014Z,16.01
2024-04-14T02:28:15.026Z,16.02
2024-04-14T02:29:15.034Z,16.00
2024-04-14T02:30:15.005Z,15.94
2024-04-14T02:31:14.933Z,16.00
2024-04-14T02:32:14.999Z,15.98
2024-04-14T02:33:14.987Z,15.95
2024-04-14T02:34:14.932Z,16.04
2024-04-14T02:35:14.988Z,16.01
2024-04-14T02:36:14.929Z,16.00
2024-04-14T02:37:14.928Z,15.95
2024-04-14T02:38:14.925Z,15.97
2024-04-14T02:39:14.907Z,15.98
2024-04-14T02:40:14.905Z,15.90
2024-04-14T02:41:14.986Z,15.82
2024-04-14T02:42:14.894Z,15.79
2024-04-14T02:43:14.865Z,15.90
2024-04-14T02:44:14.865Z,15.86
2024-04-14T02:45:14.857Z,16.04
2024-04-14T02:46:14.858Z,16.01
2024-04-14T02:47:14.902Z,16.08
2024-04-14T02:48:14.901Z,16.13
2024-04-14T02:49:14.842Z,16.04
2024-04-14T02:50:14.802Z,16.01
2024-04-14T02:51:14.824Z,15.98
2024-04-14T02:52:14.753Z,15.95
2024-04-14T02:53:14.860Z,15.97
2024-04-14T02:54:14.744Z,15.88
2024-04-14T02:55:14.765Z,15.92
2024-04-14T02:56:14.751Z,15.88
2024-04-14T02:57:14.730Z,15.84
2024-04-14T02:58:14.779Z,15.77
2024-04-14T02:59:14.768Z,15.72
2024-04-14T03:00:14.718Z,15.76
2024-04-14T03:01:14.765Z,15.88
2024-04-14T03:02:14.705Z,15.94
2024-04-14T03:03:14.708Z,15.91
2024-04-14T03:04:14.820Z,15.86
2024-04-14T03:05:14.731Z,15.80
2024-04-14T03:06:14.668Z,15.77
2024-04-14T03:07:14.664Z,15.80
2024-04-14T03:08:14.662Z,15.84
2024-04-14T03:09:14.649Z,15.83
2024-04-14T03:10:14.615Z,15.77
2024-04-14T03:11:14.666Z,15.76
2024-04-14T03:12:14.593Z,15.67
2024-04-14T03:13:14.605Z,15.61
2024-04-14T03:14:14.580Z,15.54
2024-04-14T03:15:14.571Z,15.46
2024-04-14T03:16:14.585Z,15.54
2024-04-14T03:17:32.936Z,15.58
2024-04-14T03:18:14.551Z,15.58
2024-04-14T03:19:14.528Z,15.58
2024-04-14T03:20:14.481Z,15.52
2024-04-14T03:21:14.463Z,15.55
2024-04-14T03:22:14.476Z,15.52
2024-04-14T03:23:14.496Z,15.59
2024-04-14T03:24:14.483Z,15.64
2024-04-14T03:25:14.449Z,15.73
2024-04-14T03:26:14.430Z,15.68
2024-04-14T03:27:14.505Z,15.65
2024-04-14T03:28:14.402Z,15.68
2024-04-14T03:29:14.453Z,15.67
2024-04-14T03:30:14.429Z,15.59
2024-04-14T03:31:14.436Z,15.62
2024-04-14T03:32:14.377Z,15.65
2024-04-14T03:33:14.349Z,15.62
2024-04-14T03:34:14.359Z,15.61
2024-04-14T03:35:14.335Z,15.57
2024-04-14T03:36:14.289Z,15.51
2024-04-14T03:37:14.256Z,15.58
2024-04-14T03:38:14.295Z,15.64
2024-04-14T03:39:14.282Z,15.62
2024-04-14T03:40:14.279Z,15.49
2024-04-14T03:41:14.332Z,15.49
2024-04-14T03:42:14.218Z,15.44
2024-04-14T03:43:14.213Z,15.47
2024-04-14T03:44:14.196Z,15.49
2024-04-14T03:45:14.242Z,15.61
2024-04-14T03:46:14.199Z,15.61
2024-04-14T03:47:14.243Z,15.76
2024-04-14T03:48:14.234Z,15.70
2024-04-14T03:49:14.249Z,15.67
2024-04-14T03:50:14.157Z,15.62
2024-04-14T03:51:14.146Z,15.51
2024-04-14T03:52:14.159Z,15.44
2024-04-14T03:53:14.186Z,15.47
2024-04-14T03:54:14.098Z,15.44
2024-04-14T03:55:14.089Z,15.42
2024-04-14T03:56:14.157Z,15.47
2024-04-14T03:57:14.093Z,15.46
2024-04-14T03:58:14.077Z,15.44
2024-04-14T03:59:14.107Z,15.46
2024-04-14T04:00:14.071Z,15.47
2024-04-14T04:01:14.116Z,15.49
2024-04-14T04:02:14.079Z,15.49
2024-04-14T04:03:14.025Z,15.43
2024-04-14T04:04:14.164Z,15.52
2024-04-14T04:05:14.083Z,15.61
2024-04-14T04:06:14.047Z,15.58
2024-04-14T04:07:14.029Z,15.52
2024-04-14T04:08:13.997Z,15.54
2024-04-14T04:09:14.006Z,15.52
2024-04-14T04:10:13.983Z,15.51
2024-04-14T04:11:14.022Z,15.55
2024-04-14T04:12:13.953Z,15.51
2024-04-14T04:13:13.984Z,15.49
2024-04-14T04:14:13.930Z,15.44
2024-04-14T04:15:13.906Z,15.44
2024-04-14T04:16:13.894Z,15.51
2024-04-14T04:17:13.941Z,15.42
2024-04-14T04:18:14.064Z,15.39
2024-04-14T04:19:21.593Z,15.42
2024-04-14T04:20:13.871Z,15.42
2024-04-14T04:21:13.847Z,15.43
2024-04-14T04:22:13.852Z,15.42
2024-04-14T04:23:13.905Z,15.42
2024-04-14T04:24:13.825Z,15.46
2024-04-14T04:25:13.842Z,15.49
2024-04-14T04:26:13.806Z,15.46
2024-04-14T04:27:13.802Z,15.51
2024-04-14T04:28:13.781Z,15.55
2024-04-14T04:29:13.825Z,15.49
2024-04-14T04:30:13.801Z,15.44
2024-04-14T04:31:14.042Z,15.44
2024-04-14T04:32:13.830Z,15.47
2024-04-14T04:33:13.912Z,15.43
2024-04-14T04:34:13.759Z,15.39
2024-04-14T04:35:13.800Z,15.49
2024-04-14T04:36:13.736Z,15.49
2024-04-14T04:37:13.724Z,15.55
2024-04-14T04:38:13.695Z,15.54
2024-04-14T04:39:13.688Z,15.58
2024-04-14T04:40:13.692Z,15.55
2024-04-14T04:41:13.737Z,15.59
2024-04-14T04:42:13.670Z,15.62
2024-04-14T04:43:13.676Z,15.64
2024-04-14T04:44:13.630Z,15.68
2024-04-14T04:45:13.650Z,15.72
2024-04-14T04:46:13.611Z,15.77
2024-04-14T04:47:13.720Z,15.82
2024-04-14T04:48:13.686Z,15.82
2024-04-14T04:49:13.658Z,15.82
2024-04-14T04:50:13.601Z,15.84
2024-04-14T04:51:13.579Z,15.84
2024-04-14T04:52:13.570Z,15.90
2024-04-14T04:53:13.625Z,15.94
2024-04-14T04:54:13.557Z,15.95
2024-04-14T04:55:13.540Z,16.00
2024-04-14T04:56:13.542Z,16.01
2024-04-14T04:57:13.527Z,16.05
2024-04-14T04:58:13.513Z,16.10
2024-04-14T04:59:13.551Z,16.15
2024-04-14T05:00:13.493Z,16.16
2024-04-14T05:01:13.644Z,16.20
2024-04-14T05:02:13.480Z,16.16
2024-04-14T05:03:13.602Z,16.15
2024-04-14T05:04:13.569Z,16.16
2024-04-14T05:05:13.503Z,16.16
2024-04-14T05:06:13.430Z,16.23
2024-04-14T05:07:13.462Z,16.26
2024-04-14T05:08:13.422Z,16.31
2024-04-14T05:09:13.449Z,16.36
2024-04-14T05:10:13.407Z,16.41
2024-04-14T05:11:13.506Z,16.46
2024-04-14T05:12:13.388Z,16.50
2024-04-14T05:13:13.391Z,16.50
2024-04-14T05:14:13.358Z,16.53
2024-04-14T05:15:13.346Z,16.56
2024-04-14T05:16:13.339Z,16.56
2024-04-14T05:17:13.422Z,16.61
2024-04-14T05:18:13.434Z,16.65
2024-04-14T05:19:13.391Z,16.74
2024-04-14T05:20:13.310Z,16.76
2024-04-14T05:21:13.317Z,16.75
2024-04-14T05:22:13.297Z,16.76
2024-04-14T05:23:13.350Z,16.81
2024-04-14T05:24:13.297Z,16.86
2024-04-14T05:25:13.351Z,16.91
2024-04-14T05:26:13.242Z,16.97
2024-04-14T05:27:13.262Z,17.04
2024-04-14T05:28:13.220Z,17.04
2024-04-14T05:29:13.274Z,17.06
2024-04-14T05:30:13.210Z,17.05
2024-04-14T05:31:13.252Z,17.08
2024-04-14T05:32:13.238Z,17.02
2024-04-14T05:33:13.278Z,17.04
2024-04-14T05:34:13.206Z,17.09
2024-04-14T05:35:13.213Z,17.19
2024-04-14T05:36:13.188Z,17.20
2024-04-14T05:37:13.156Z,17.24
2024-04-14T05:38:13.141Z,17.29
2024-04-14T05:39:13.153Z,17.30
2024-04-14T05:40:13.129Z,17.31
2024-04-14T05:41:13.163Z,17.39
2024-04-14T05:42:13.094Z,17.45
2024-04-14T05:43:13.116Z,17.54
2024-04-14T05:44:13.084Z,17.59
2024-04-14T05:45:13.108Z,17.70
2024-04-14T05:46:13.073Z,17.76
2024-04-14T05:47:13.142Z,17.82
2024-04-14T05:48:13.190Z,17.85
2024-04-14T05:49:18.700Z,17.94
2024-04-14T05:50:13.154Z,18.04
2024-04-14T05:51:13.041Z,18.03
2024-04-14T05:52:13.076Z,18.08
2024-04-14T05:53:13.062Z,18.20
2024-04-14T05:54:13.010Z,18.18
2024-04-14T05:55:12.997Z,18.23
2024-04-14T05:56:12.995Z,18.29
2024-04-14T05:57:12.982Z,18.38
2024-04-14T05:58:12.973Z,18.41
2024-04-14T05:59:12.998Z,18.45
2024-04-14T06:00:13.050Z,18.53
2024-04-14T06:01:12.983Z,18.50
2024-04-14T06:02:12.905Z,18.52
2024-04-14T06:03:12.993Z,18.55
2024-04-14T06:04:12.982Z,18.71
2024-04-14T06:05:12.940Z,18.81
2024-04-14T06:06:12.922Z,18.88
2024-04-14T06:07:12.897Z,18.84
2024-04-14T06:08:12.915Z,18.84
2024-04-14T06:09:12.852Z,18.95
2024-04-14T06:10:12.862Z,19.08
2024-04-14T06:11:12.952Z,19.14
2024-04-14T06:12:12.813Z,19.21
2024-04-14T06:13:12.822Z,19.16
2024-04-14T06:14:12.808Z,19.07
2024-04-14T06:15:12.808Z,19.11
2024-04-14T06:16:12.816Z,19.18
2024-04-14T06:17:12.820Z,19.30
2024-04-14T06:18:12.772Z,19.31
2024-04-14T06:19:12.776Z,19.48
2024-04-14T06:20:12.753Z,19.63
2024-04-14T06:21:12.733Z,19.73
2024-04-14T06:22:12.755Z,19.81
2024-04-14T06:23:12.755Z,20.00
2024-04-14T06:24:12.726Z,19.99
2024-04-14T06:25:12.716Z,20.13
2024-04-14T06:26:12.709Z,20.07
2024-04-14T06:27:12.713Z,20.24
2024-04-14T06:28:12.701Z,20.24
2024-04-14T06:29:12.726Z,20.39
2024-04-14T06:30:12.707Z,20.47
2024-04-14T06:31:12.664Z,20.44
2024-04-14T06:32:12.707Z,20.55
2024-04-14T06:33:12.709Z,20.78
2024-04-14T06:34:12.692Z,20.99
2024-04-14T06:35:12.668Z,21.12
2024-04-14T06:36:12.614Z,21.07
2024-04-14T06:37:12.661Z,21.06
2024-04-14T06:38:12.562Z,21.00
2024-04-14T06:39:12.567Z,20.85
2024-04-14T06:40:12.644Z,20.82
2024-04-14T06:41:12.600Z,20.95
2024-04-14T06:42:14.742Z,21.03
2024-04-14T06:43:12.565Z,20.99
2024-04-14T06:44:12.517Z,20.63
2024-04-14T06:45:12.594Z,20.88
2024-04-14T06:46:12.523Z,20.65
2024-04-14T06:47:12.626Z,20.87
2024-04-14T06:48:12.527Z,20.78
2024-04-14T06:49:12.533Z,20.67
2024-04-14T06:50:12.495Z,20.75
2024-04-14T06:51:12.470Z,20.77
2024-04-14T06:52:12.456Z,20.78
2024-04-14T06:53:12.500Z,20.93
2024-04-14T06:54:12.471Z,20.82
2024-04-14T06:55:12.451Z,20.96
2024-04-14T06:56:12.420Z,20.81
2024-04-14T06:57:12.423Z,20.69
2024-04-14T06:58:12.396Z,20.65
2024-04-14T06:59:12.495Z,20.63
2024-04-14T07:00:12.393Z,20.41
2024-04-14T07:01:12.454Z,20.59
2024-04-14T07:02:12.389Z,20.69
2024-04-14T07:03:12.359Z,20.70
2024-04-14T07:04:12.470Z,20.59
2024-04-14T07:05:12.389Z,20.48
2024-04-14T07:06:12.373Z,20.62
2024-04-14T07:07:12.362Z,20.82
2024-04-14T07:08:12.333Z,21.17
2024-04-14T07:09:12.351Z,21.33
2024-04-14T07:10:12.305Z,21.52
2024-04-14T07:11:12.372Z,21.85
2024-04-14T07:12:12.297Z,21.79
2024-04-14T07:13:12.271Z,22.15
2024-04-14T07:14:12.267Z,22.29
2024-04-14T07:15:12.260Z,22.33
2024-04-14T07:16:12.213Z,22.43
2024-04-14T07:17:12.298Z,22.55
2024-04-14T07:18:12.398Z,22.15
2024-04-14T07:19:12.294Z,21.85
2024-04-14T07:20:12.198Z,21.45
2024-04-14T07:21:12.191Z,21.17
2024-04-14T07:22:12.192Z,21.37
2024-04-14T07:23:12.208Z,21.67
2024-04-14T07:24:12.149Z,22.07
2024-04-14T07:25:12.179Z,22.41
2024-04-14T07:26:12.157Z,22.63
2024-04-14T07:27:12.148Z,22.73
2024-04-14T07:28:12.159Z,22.32
2024-04-14T07:29:12.202Z,22.44
2024-04-14T07:30:12.144Z,22.59
2024-04-14T07:31:12.122Z,22.81
2024-04-14T07:32:12.136Z,22.32
2024-04-14T07:33:12.220Z,22.47
2024-04-14T07:34:12.145Z,22.25
2024-04-14T07:35:12.106Z,22.29
2024-04-14T07:36:12.059Z,22.47
2024-04-14T07:37:12.051Z,22.54
2024-04-14T07:38:12.052Z,22.15
2024-04-14T07:39:12.074Z,21.80
2024-04-14T07:40:12.060Z,21.29
2024-04-14T07:41:12.049Z,21.42
2024-04-14T07:42:12.058Z,21.42
2024-04-14T07:43:11.998Z,21.33
2024-04-14T07:44:11.996Z,21.43
2024-04-14T07:45:11.976Z,21.51
2024-04-14T07:46:11.971Z,21.54
2024-04-14T07:47:12.041Z,21.93
2024-04-14T07:48:12.099Z,22.07
2024-04-14T07:49:11.965Z,22.13
2024-04-14T07:50:11.927Z,22.07
2024-04-14T07:51:11.922Z,22.15
2024-04-14T07:52:11.939Z,22.00
2024-04-14T07:53:11.964Z,22.15
2024-04-14T07:54:11.904Z,21.83
2024-04-14T07:55:12.090Z,21.89
2024-04-14T07:56:11.878Z,21.93
2024-04-14T07:57:11.892Z,21.66
2024-04-14T07:58:11.917Z,21.48
2024-04-14T07:59:11.935Z,21.46
2024-04-14T08:00:11.840Z,21.25
2024-04-14T08:01:11.989Z,21.11
2024-04-14T08:02:11.818Z,21.11
2024-04-14T08:03:11.883Z,21.33
2024-04-14T08:04:11.962Z,21.70
2024-04-14T08:05:12.014Z,21.54
2024-04-14T08:06:11.769Z,21.64
2024-04-14T08:07:11.823Z,21.42
2024-04-14T08:08:11.785Z,21.40
2024-04-14T08:09:11.760Z,21.25
2024-04-14T08:10:11.803Z,21.17
2024-04-14T08:11:11.827Z,20.96
2024-04-14T08:12:13.157Z,20.78
2024-04-14T08:13:11.776Z,20.52
2024-04-14T08:14:11.750Z,20.59
2024-04-14T08:15:11.706Z,20.60
2024-04-14T08:16:11.784Z,20.62
2024-04-14T08:17:11.717Z,20.52
2024-04-14T08:18:11.689Z,20.43
2024-04-14T08:19:11.708Z,20.37
2024-04-14T08:20:11.666Z,20.22
2024-04-14T08:21:11.641Z,20.04
2024-04-14T08:22:11.734Z,19.96
2024-04-14T08:23:11.699Z,19.86
2024-04-14T08:24:11.646Z,19.73
2024-04-14T08:25:11.671Z,19.66
2024-04-14T08:26:11.638Z,19.49
2024-04-14T08:27:11.619Z,19.49
2024-04-14T08:28:13.392Z,19.47
2024-04-14T08:29:11.646Z,19.34
2024-04-14T08:30:11.589Z,19.21
2024-04-14T08:31:11.557Z,18.96
2024-04-14T08:32:11.567Z,19.00
2024-04-14T08:33:11.683Z,19.08
2024-04-14T08:34:11.564Z,19.16
2024-04-14T08:35:11.577Z,19.09
2024-04-14T08:36:11.565Z,19.22
2024-04-14T08:37:11.579Z,19.36
2024-04-14T08:38:11.487Z,19.48
2024-04-14T08:39:11.494Z,19.59
2024-04-14T08:40:11.576Z,19.52
2024-04-14T08:41:11.504Z,19.62
2024-04-14T08:42:11.456Z,19.37
2024-04-14T08:43:11.482Z,19.48
2024-04-14T08:44:11.423Z,19.52
2024-04-14T08:45:11.405Z,19.79
2024-04-14T08:46:11.530Z,19.99
2024-04-14T08:47:11.443Z,20.19
2024-04-14T08:48:11.423Z,20.11
2024-04-14T08:49:11.485Z,20.11
2024-04-14T08:50:11.401Z,20.19
2024-04-14T08:51:11.367Z,20.18
2024-04-14T08:52:11.409Z,20.24
2024-04-14T08:53:11.414Z,20.29
2024-04-14T08:54:11.328Z,20.25
2024-04-14T08:55:11.348Z,20.28
2024-04-14T08:56:11.363Z,20.10
2024-04-14T08:57:11.328Z,20.21
2024-04-14T08:58:11.354Z,20.34
2024-04-14T08:59:11.347Z,20.62
2024-04-14T09:00:11.305Z,20.96
2024-04-14T09:01:11.334Z,21.50
2024-04-14T09:02:11.310Z,21.52
2024-04-14T09:03:11.273Z,21.60
2024-04-14T09:04:11.343Z,21.20
2024-04-14T09:05:11.287Z,21.61
2024-04-14T09:06:11.291Z,21.88
2024-04-14T09:07:11.276Z,21.70
2024-04-14T09:08:11.230Z,21.35
2024-04-14T09:09:11.223Z,21.46
2024-04-14T09:10:11.238Z,21.54
2024-04-14T09:11:11.334Z,22.13
2024-04-14T09:12:11.196Z,22.88
2024-04-14T09:13:11.228Z,23.59
2024-04-14T09:14:11.174Z,23.76
2024-04-14T09:15:11.162Z,22.93
2024-04-14T09:16:11.240Z,22.98
2024-04-14T09:17:11.193Z,22.63
2024-04-14T09:18:11.120Z,22.43
2024-04-14T09:19:11.146Z,23.05
2024-04-14T09:20:11.118Z,23.34
2024-04-14T09:21:11.109Z,23.78
2024-04-14T09:22:11.142Z,24.33
2024-04-14T09:23:11.127Z,24.30
2024-04-14T09:24:11.067Z,24.36
2024-04-14T09:25:11.079Z,23.96
2024-04-14T09:26:11.102Z,24.28
2024-04-14T09:27:11.045Z,24.42
2024-04-14T09:28:11.085Z,24.50
2024-04-14T09:29:11.045Z,24.81
2024-04-14T09:30:11.031Z,24.39
2024-04-14T09:31:11.065Z,24.18
2024-04-14T09:32:11.021Z,24.16
2024-04-14T09:33:11.040Z,24.08
2024-04-14T09:34:11.009Z,24.13
2024-04-14T09:35:11.036Z,24.33
2024-04-14T09:36:10.981Z,24.43
2024-04-14T09:37:10.985Z,24.50
2024-04-14T09:38:10.937Z,24.29
2024-04-14T09:39:10.944Z,24.60
2024-04-14T09:40:10.955Z,24.29
2024-04-14T09:41:10.947Z,24.47
2024-04-14T09:42:10.911Z,24.38
2024-04-14T09:43:10.910Z,24.65
2024-04-14T09:44:10.937Z,24.69
2024-04-14T09:45:10.894Z,24.38
2024-04-14T09:46:11.025Z,24.36
2024-04-14T09:47:10.963Z,24.32
2024-04-14T09:48:10.930Z,24.53
2024-04-14T09:49:10.935Z,23.71
2024-04-14T09:50:10.849Z,23.93
2024-04-14T09:51:10.833Z,23.88
2024-04-14T09:52:10.854Z,23.47
2024-04-14T09:53:10.839Z,23.77
2024-04-14T09:54:10.805Z,23.58
2024-04-14T09:55:10.829Z,23.03
2024-04-14T09:56:10.831Z,22.75
2024-04-14T09:57:10.782Z,22.85
2024-04-14T09:58:10.841Z,23.48
2024-04-14T09:59:10.817Z,23.55
2024-04-14T10:00:10.773Z,22.87
2024-04-14T10:01:10.809Z,23.27
2024-04-14T10:02:10.774Z,23.59
2024-04-14T10:03:10.748Z,23.40
2024-04-14T10:04:10.906Z,22.66
2024-04-14T10:05:10.799Z,22.98
2024-04-14T10:06:10.690Z,23.59
2024-04-14T10:07:10.752Z,24.26
2024-04-14T10:08:10.702Z,24.65
2024-04-14T10:09:10.670Z,24.99
2024-04-14T10:10:10.703Z,24.93
2024-04-14T10:11:10.721Z,25.10
2024-04-14T10:12:10.685Z,25.48
2024-04-14T10:13:10.660Z,25.59
2024-04-14T10:14:10.647Z,25.93
2024-04-14T10:15:10.632Z,26.03
2024-04-14T10:16:10.728Z,26.59
2024-04-14T10:17:10.674Z,26.53
2024-04-14T10:18:10.616Z,26.47
2024-04-14T10:19:10.600Z,25.58
2024-04-14T10:20:10.586Z,24.69
2024-04-14T10:21:10.564Z,23.32
2024-04-14T10:22:10.650Z,22.80
2024-04-14T10:23:10.611Z,23.06
2024-04-14T10:24:10.558Z,23.81
2024-04-14T10:25:10.608Z,24.36
2024-04-14T10:26:10.542Z,24.63
2024-04-14T10:27:10.532Z,23.84
2024-04-14T10:28:10.586Z,23.56
2024-04-14T10:29:10.552Z,23.87
2024-04-14T10:30:10.499Z,24.35
2024-04-14T10:31:10.546Z,25.03
2024-04-14T10:32:10.478Z,24.21
2024-04-14T10:33:10.636Z,23.09
2024-04-14T10:34:10.681Z,22.14
2024-04-14T10:35:10.556Z,21.50
2024-04-14T10:36:10.436Z,21.12
2024-04-14T10:37:10.478Z,22.00
2024-04-14T10:38:10.449Z,22.70
2024-04-14T10:39:10.469Z,22.80
2024-04-14T10:40:10.423Z,23.12
2024-04-14T10:41:10.448Z,23.23
2024-04-14T10:42:10.400Z,22.68
2024-04-14T10:43:10.428Z,22.76
2024-04-14T10:44:10.375Z,22.43
2024-04-14T10:45:10.384Z,21.96
2024-04-14T10:46:10.385Z,22.60
2024-04-14T10:47:10.388Z,22.99
2024-04-14T10:48:10.376Z,22.88
2024-04-14T10:49:10.347Z,23.46
2024-04-14T10:50:10.315Z,23.40
2024-04-14T10:51:10.313Z,22.48
2024-04-14T10:52:10.358Z,22.26
2024-04-14T10:53:10.352Z,22.70
2024-04-14T10:54:10.264Z,23.10
2024-04-14T10:55:10.376Z,23.98
2024-04-14T10:56:10.276Z,23.66
2024-04-14T10:57:10.291Z,24.06
2024-04-14T10:58:10.277Z,24.13
2024-04-14T10:59:10.296Z,24.13
2024-04-14T11:00:10.234Z,23.93
2024-04-14T11:01:10.263Z,24.32
2024-04-14T11:02:10.200Z,24.80
2024-04-14T11:03:10.268Z,24.50
2024-04-14T11:04:10.287Z,24.74
2024-04-14T11:05:10.260Z,24.96
2024-04-14T11:06:10.200Z,25.04
2024-04-14T11:07:10.194Z,24.98
2024-04-14T11:08:12.156Z,25.25
2024-04-14T11:09:10.149Z,25.13
2024-04-14T11:10:10.207Z,25.54
2024-04-14T11:11:10.208Z,25.83
2024-04-14T11:12:10.139Z,26.29
2024-04-14T11:13:10.167Z,26.34
2024-04-14T11:14:10.096Z,26.60
2024-04-14T11:15:11.869Z,26.25
2024-04-14T11:16:10.199Z,25.66
2024-04-14T11:17:10.136Z,26.06
2024-04-14T11:18:10.153Z,25.90
2024-04-14T11:19:10.111Z,25.90
2024-04-14T11:20:10.068Z,26.28
2024-04-14T11:21:10.031Z,26.40
2024-04-14T11:22:10.111Z,25.40
2024-04-14T11:23:10.075Z,24.86
2024-04-14T11:24:10.023Z,24.42
2024-04-14T11:25:10.038Z,24.05
2024-04-14T11:26:09.994Z,23.77
2024-04-14T11:27:09.998Z,23.62
2024-04-14T11:28:10.082Z,23.63
2024-04-14T11:29:10.027Z,23.62
2024-04-14T11:30:09.962Z,23.58
2024-04-14T11:31:10.083Z,23.25
2024-04-14T11:32:09.955Z,23.40
2024-04-14T11:33:10.023Z,23.47
2024-04-14T11:34:12.670Z,23.68
2024-04-14T11:35:10.003Z,24.03
2024-04-14T11:36:09.899Z,24.55
2024-04-14T11:37:09.954Z,24.24
2024-04-14T11:38:09.901Z,24.36
2024-04-14T11:39:09.982Z,24.58
2024-04-14T11:40:12.017Z,24.48
2024-04-14T11:41:10.048Z,23.88
2024-04-14T11:42:09.874Z,24.26
2024-04-14T11:43:09.905Z,24.51
2024-04-14T11:44:09.868Z,24.55
2024-04-14T11:45:09.833Z,24.51
2024-04-14T11:46:11.756Z,24.76
2024-04-14T11:47:09.908Z,25.38
2024-04-14T11:48:09.808Z,25.95
2024-04-14T11:49:09.877Z,26.15
2024-04-14T11:50:09.803Z,26.05
2024-04-14T11:51:09.787Z,26.33
2024-04-14T11:52:10.804Z,26.31
2024-04-14T11:53:09.845Z,25.65
2024-04-14T11:54:09.765Z,25.48
2024-04-14T11:55:09.843Z,25.40
2024-04-14T11:56:09.770Z,25.66
2024-04-14T11:57:09.756Z,25.62
2024-04-14T11:58:09.776Z,25.46
2024-04-14T11:59:09.787Z,24.76
2024-04-14T12:00:09.737Z,24.32
2024-04-14T12:01:09.741Z,23.91
2024-04-14T12:02:09.709Z,23.66
2024-04-14T12:03:09.741Z,23.17
2024-04-14T12:04:09.894Z,22.76
2024-04-14T12:05:09.723Z,23.02
2024-04-14T12:06:10.829Z,23.34
2024-04-14T12:07:09.726Z,23.00
2024-04-14T12:08:09.646Z,22.90
2024-04-14T12:09:09.658Z,23.18
2024-04-14T12:10:09.700Z,23.08
2024-04-14T12:11:09.714Z,23.12
2024-04-14T12:12:11.412Z,23.05
2024-04-14T12:13:09.657Z,23.21
2024-04-14T12:14:09.628Z,22.90
2024-04-14T12:15:09.574Z,23.00
2024-04-14T12:16:09.673Z,23.06
2024-04-14T12:17:09.632Z,23.39
2024-04-14T12:18:11.455Z,22.99
2024-04-14T12:19:09.594Z,23.06
2024-04-14T12:20:09.565Z,22.66
2024-04-14T12:21:09.547Z,22.50
2024-04-14T12:22:09.552Z,22.51
2024-04-14T12:23:09.544Z,22.41
2024-04-14T12:24:11.461Z,22.11
2024-04-14T12:25:09.549Z,21.91
2024-04-14T12:26:09.513Z,21.93
2024-04-14T12:27:09.472Z,21.93
2024-04-14T12:28:09.534Z,21.89
2024-04-14T12:29:09.499Z,21.73
2024-04-14T12:30:09.463Z,21.73
2024-04-14T12:31:09.468Z,21.48
2024-04-14T12:32:09.428Z,21.33
2024-04-14T12:33:09.580Z,21.43
2024-04-14T12:34:09.485Z,21.51
2024-04-14T12:35:09.458Z,21.35
2024-04-14T12:36:11.124Z,21.37
2024-04-14T12:37:09.395Z,21.14
2024-04-14T12:38:09.403Z,21.05
2024-04-14T12:39:14.832Z,20.97
2024-04-14T12:40:09.399Z,20.74
2024-04-14T12:41:09.394Z,-39.76
2024-04-14T12:42:11.711Z,20.87
2024-04-14T12:43:09.464Z,21.07
2024-04-14T12:44:09.327Z,21.30
2024-04-14T12:45:09.327Z,21.62
2024-04-14T12:46:09.350Z,21.70
2024-04-14T12:47:09.349Z,21.61
2024-04-14T12:48:11.156Z,21.91
2024-04-14T12:49:09.290Z,21.82
2024-04-14T12:50:09.273Z,21.92
2024-04-14T12:51:09.257Z,21.48
2024-04-14T12:52:09.359Z,21.42